Time;durP1;ratioP1;P1;durP2;ratioP2;P2;SDS_P1;SDS_P2;PMS_P1;PMS_P2;Temp;Humidity;BMP_temperature;BMP_pressure;BME280_temperature;BME280_humidity;BME280_pressure;Samples;Min_cycle;Max_cycle;Signal;HPM_P1;HPM_P2
2022/09/22 00:01:16;;;;;;;2.88;1.88;;;21.00;61.70;;;;;;4924575;28;92965;-79
2022/09/22 00:03:47;;;;;;;3.93;2.47;;;21.00;61.60;;;;;;4925791;28;92263;-80
2022/09/22 00:06:16;;;;;;;2.90;1.88;;;21.00;61.70;;;;;;4925535;28;92577;-80
2022/09/22 00:08:45;;;;;;;4.03;2.47;;;21.00;61.70;;;;;;4924734;28;93275;-79
2022/09/22 00:11:26;;;;;;;4.57;2.33;;;20.90;61.60;;;;;;4923357;28;92700;-79
2022/09/22 00:13:58;;;;;;;3.67;2.40;;;20.90;61.70;;;;;;4925008;28;92101;-79
2022/09/22 00:16:27;;;;;;;2.85;2.10;;;21.00;61.60;;;;;;4924768;28;92357;-79
2022/09/22 00:18:53;;;;;;;4.18;2.60;;;20.90;61.50;;;;;;4925690;28;93386;-79
2022/09/22 00:21:21;;;;;;;3.10;2.30;;;21.00;61.50;;;;;;4924078;28;94402;-79
2022/09/22 00:23:47;;;;;;;3.72;2.00;;;21.00;61.80;;;;;;4937640;28;92849;-79
2022/09/22 00:26:16;;;;;;;4.55;2.38;;;20.90;61.60;;;;;;4923167;28;92618;-79
2022/09/22 00:28:44;;;;;;;4.15;2.25;;;20.90;61.70;;;;;;4923738;28;92939;-79
2022/09/22 00:31:14;;;;;;;4.20;2.47;;;20.90;61.50;;;;;;4921995;28;93335;-79
2022/09/22 00:33:41;;;;;;;5.30;2.22;;;20.90;61.60;;;;;;4923736;28;92022;-79
2022/09/22 00:36:07;;;;;;;3.78;2.35;;;20.90;61.60;;;;;;4921780;28;91860;-79
2022/09/22 00:38:33;;;;;;;4.07;2.42;;;20.90;61.40;;;;;;4923657;28;92880;-79
2022/09/22 00:41:00;;;;;;;4.05;2.17;;;20.90;61.50;;;;;;4922383;28;93189;-79
2022/09/22 00:43:29;;;;;;;4.45;2.70;;;20.90;61.50;;;;;;4925174;28;93509;-79
2022/09/22 00:46:06;;;;;;;5.93;2.67;;;20.90;61.50;;;;;;4921214;28;91984;-79
2022/09/22 00:48:36;;;;;;;4.00;2.20;;;20.90;61.60;;;;;;4922463;28;93080;-79
2022/09/22 00:51:04;;;;;;;4.03;2.10;;;20.90;61.50;;;;;;4924406;28;92990;-79
2022/09/22 00:53:30;;;;;;;4.78;2.40;;;20.80;61.40;;;;;;4937364;28;92685;-79
2022/09/22 00:56:07;;;;;;;3.75;2.08;;;20.80;61.40;;;;;;4922996;28;92262;-79
2022/09/22 00:58:36;;;;;;;4.18;2.33;;;20.80;61.60;;;;;;4923820;28;93139;-79
2022/09/22 01:01:03;;;;;;;3.88;2.45;;;20.80;61.50;;;;;;4925833;28;92207;-79
2022/09/22 01:03:29;;;;;;;3.00;2.13;;;20.80;61.50;;;;;;4921415;28;92348;-79
2022/09/22 01:05:58;;;;;;;4.57;2.38;;;20.80;61.60;;;;;;4924933;28;92875;-80
2022/09/22 01:08:24;;;;;;;3.65;1.92;;;20.80;61.40;;;;;;4950959;28;93458;-79
2022/09/22 01:10:52;;;;;;;4.13;2.28;;;20.80;61.50;;;;;;4923336;28;95406;-80
2022/09/22 01:13:26;;;;;;;4.60;2.45;;;20.80;61.30;;;;;;4954697;28;92488;-79
2022/09/22 01:16:21;;;;;;;3.50;2.30;;;20.80;61.50;;;;;;4922937;28;92229;-79
2022/09/22 01:19:08;;;;;;;3.00;2.00;;;20.80;61.50;;;;;;4921630;28;97535;-79
2022/09/22 01:21:41;;;;;;;3.65;1.92;;;20.80;61.30;;;;;;4922733;28;93330;-79
2022/09/22 01:24:46;;;;;;;3.38;2.33;;;20.80;61.30;;;;;;4921341;28;92349;-79
2022/09/22 01:27:38;;;;;;;2.83;2.00;;;20.80;61.40;;;;;;4921726;28;91184;-79
2022/09/22 01:30:23;;;;;;;4.28;2.38;;;20.70;61.40;;;;;;4924165;28;93609;-79
2022/09/22 01:33:12;;;;;;;4.93;2.22;;;20.70;61.30;;;;;;4918986;28;93704;-79
2022/09/22 01:36:05;;;;;;;4.57;2.45;;;20.70;61.40;;;;;;4921633;28;94074;-79
2022/09/22 01:38:43;;;;;;;3.95;2.45;;;20.70;61.20;;;;;;4923025;28;92594;-79
2022/09/22 01:41:17;;;;;;;3.33;2.03;;;20.70;61.40;;;;;;4922528;28;92981;-79
2022/09/22 01:44:03;;;;;;;3.42;2.15;;;20.70;61.50;;;;;;4924678;28;93295;-79
2022/09/22 01:46:37;;;;;;;4.40;2.30;;;20.70;61.30;;;;;;4922533;28;92332;-79
2022/09/22 01:49:07;;;;;;;3.55;2.05;;;20.70;61.40;;;;;;4922730;28;92577;-79
2022/09/22 01:51:45;;;;;;;3.63;1.98;;;20.70;61.50;;;;;;4955790;28;97029;-79
2022/09/22 01:54:16;;;;;;;3.60;2.22;;;20.70;61.60;;;;;;4921895;28;92478;-79
2022/09/22 01:56:46;;;;;;;3.40;2.00;;;20.70;61.40;;;;;;4921614;28;92062;-79
2022/09/22 01:59:15;;;;;;;4.00;2.22;;;20.70;61.60;;;;;;4923138;28;92798;-79
2022/09/22 02:01:54;;;;;;;3.40;2.08;;;20.60;61.50;;;;;;4921361;28;94530;-79
2022/09/22 02:04:44;;;;;;;2.45;1.90;;;20.60;61.50;;;;;;4923935;28;94144;-79
2022/09/22 02:07:14;;;;;;;2.75;2.05;;;20.70;61.40;;;;;;4923627;28;92431;-79
2022/09/22 02:09:41;;;;;;;3.30;2.22;;;20.60;61.40;;;;;;4922385;28;95687;-79
2022/09/22 02:12:07;;;;;;;3.30;1.98;;;20.70;61.40;;;;;;4922494;28;92325;-79
2022/09/22 02:14:33;;;;;;;3.72;2.38;;;20.60;61.40;;;;;;4921791;28;92328;-79
2022/09/22 02:16:59;;;;;;;3.95;2.30;;;20.60;61.20;;;;;;4923432;28;92186;-79
2022/09/22 02:19:37;;;;;;;4.00;1.95;;;20.60;61.20;;;;;;4922261;28;92647;-79
2022/09/22 02:22:04;;;;;;;4.20;2.05;;;20.60;61.20;;;;;;4922437;28;95971;-80
2022/09/22 02:24:33;;;;;;;3.25;1.90;;;20.60;61.20;;;;;;4919331;28;93349;-79
2022/09/22 02:27:07;;;;;;;3.83;1.95;;;20.70;61.20;;;;;;4923102;28;93411;-79
2022/09/22 02:29:38;;;;;;;2.67;2.10;;;20.60;61.10;;;;;;4922281;28;91981;-79
2022/09/22 02:32:08;;;;;;;3.53;2.00;;;20.60;61.20;;;;;;4921770;28;94180;-79
2022/09/22 02:34:33;;;;;;;2.60;2.08;;;20.60;61.10;;;;;;4921100;28;93568;-79
2022/09/22 02:37:30;;;;;;;2.75;1.80;;;20.60;61.10;;;;;;4924906;28;92444;-79
2022/09/22 02:39:58;;;;;;;5.05;2.17;;;20.60;61.00;;;;;;4921124;28;92169;-79
2022/09/22 02:42:33;;;;;;;2.40;1.77;;;20.60;61.10;;;;;;4920535;28;92751;-79
2022/09/22 02:45:18;;;;;;;3.85;2.00;;;20.60;61.10;;;;;;4919562;28;93406;-79
2022/09/22 02:48:01;;;;;;;4.15;2.05;;;20.60;61.20;;;;;;4923681;28;91850;-79
2022/09/22 02:50:28;;;;;;;3.35;2.08;;;20.60;61.00;;;;;;4922524;28;92357;-79
2022/09/22 02:53:01;;;;;;;2.58;1.90;;;20.60;60.90;;;;;;4919562;28;93362;-79
2022/09/22 02:55:27;;;;;;;2.45;1.98;;;20.60;61.00;;;;;;4921660;28;92647;-79
2022/09/22 02:57:53;;;;;;;3.15;2.00;;;20.60;61.00;;;;;;4922482;28;92851;-80
2022/09/22 03:00:19;;;;;;;2.13;1.73;;;20.60;60.80;;;;;;4925363;28;92617;-79
2022/09/22 03:02:44;;;;;;;2.63;1.98;;;20.60;60.90;;;;;;4922981;28;94147;-79
2022/09/22 03:05:10;;;;;;;2.10;1.90;;;20.60;60.50;;;;;;4923295;28;93161;-79
2022/09/22 03:07:36;;;;;;;2.45;1.80;;;20.50;60.70;;;;;;4926061;28;92562;-79
2022/09/22 03:10:01;;;;;;;2.63;1.83;;;20.50;60.70;;;;;;4925352;28;91630;-79
2022/09/22 03:12:27;;;;;;;2.95;2.17;;;20.50;60.60;;;;;;4925803;28;93228;-79
2022/09/22 03:14:53;;;;;;;2.13;1.80;;;20.50;60.70;;;;;;4923572;28;92425;-79
2022/09/22 03:17:18;;;;;;;3.92;2.28;;;20.50;60.70;;;;;;4923675;28;93119;-79
2022/09/22 03:19:44;;;;;;;2.88;2.13;;;20.60;60.70;;;;;;4924972;28;92203;-79
2022/09/22 03:22:09;;;;;;;2.13;1.90;;;20.50;60.80;;;;;;4922590;28;93458;-79
2022/09/22 03:24:35;;;;;;;2.35;1.98;;;20.50;60.70;;;;;;4923009;28;93752;-79
2022/09/22 03:27:00;;;;;;;7.60;2.35;;;20.50;60.60;;;;;;4925029;28;92640;-79
2022/09/22 03:29:26;;;;;;;2.75;1.90;;;20.50;60.80;;;;;;4924336;28;92441;-79
2022/09/22 03:31:52;;;;;;;2.55;1.92;;;20.50;60.50;;;;;;4924414;28;93314;-79
2022/09/22 03:34:17;;;;;;;2.63;2.00;;;20.50;60.40;;;;;;4926996;28;91970;-79
2022/09/22 03:36:43;;;;;;;2.80;1.80;;;20.50;60.50;;;;;;4927009;28;92049;-79
2022/09/22 03:39:08;;;;;;;2.33;1.70;;;20.50;60.60;;;;;;4925446;28;92801;-79
2022/09/22 03:41:34;;;;;;;2.08;1.63;;;20.50;60.40;;;;;;4926072;28;93255;-80
2022/09/22 03:43:59;;;;;;;2.72;1.75;;;20.60;60.50;;;;;;4956434;28;94850;-79
2022/09/22 03:46:25;;;;;;;2.83;1.95;;;20.50;60.60;;;;;;4924777;28;92712;-79
2022/09/22 03:48:51;;;;;;;3.10;2.17;;;20.50;60.60;;;;;;4923132;28;92098;-79
2022/09/22 03:51:18;;;;;;;3.60;1.95;;;20.50;60.60;;;;;;4923419;28;93580;-79
2022/09/22 03:53:44;;;;;;;2.65;1.75;;;20.50;60.50;;;;;;4925958;28;93665;-80
2022/09/22 03:56:13;;;;;;;1.80;1.70;;;20.50;60.50;;;;;;4924693;28;92001;-79
2022/09/22 03:58:39;;;;;;;2.40;1.57;;;20.40;60.30;;;;;;4924930;28;91696;-80
2022/09/22 04:01:06;;;;;;;2.13;1.80;;;20.40;60.40;;;;;;4925361;28;92145;-79
2022/09/22 04:03:33;;;;;;;2.58;2.00;;;20.40;60.40;;;;;;4922673;28;93257;-79
2022/09/22 04:05:59;;;;;;;2.67;2.00;;;20.50;60.50;;;;;;4924454;28;92981;-79
2022/09/22 04:08:25;;;;;;;1.92;1.70;;;20.40;60.40;;;;;;4923327;28;92629;-79
2022/09/22 04:10:51;;;;;;;2.50;2.15;;;20.40;60.40;;;;;;4924153;28;93134;-79
2022/09/22 04:13:16;;;;;;;2.38;1.90;;;20.40;60.50;;;;;;4925632;28;92547;-79
2022/09/22 04:15:43;;;;;;;2.58;1.92;;;20.40;60.50;;;;;;4925229;28;92777;-79
2022/09/22 04:18:11;;;;;;;2.17;1.77;;;20.40;60.30;;;;;;4923669;28;92354;-79
2022/09/22 04:20:39;;;;;;;2.33;1.92;;;20.50;60.10;;;;;;4923832;28;93646;-78
2022/09/22 04:23:05;;;;;;;2.33;1.73;;;20.40;60.30;;;;;;4923730;28;91874;-80
2022/09/22 04:25:31;;;;;;;2.38;2.03;;;20.40;60.30;;;;;;4924227;28;92493;-79
2022/09/22 04:27:56;;;;;;;2.65;1.88;;;20.40;60.30;;;;;;4924930;28;92474;-79
2022/09/22 04:30:22;;;;;;;2.53;1.90;;;20.40;61.20;;;;;;4923485;28;93734;-79
2022/09/22 04:32:47;;;;;;;2.60;2.10;;;20.40;60.60;;;;;;4922478;28;93184;-79
2022/09/22 04:35:13;;;;;;;3.53;2.08;;;20.30;60.50;;;;;;4924200;28;92879;-79
2022/09/22 04:37:39;;;;;;;2.15;1.75;;;20.40;60.60;;;;;;4925032;28;92272;-79
2022/09/22 04:40:05;;;;;;;2.58;1.88;;;20.40;60.60;;;;;;4925715;28;93461;-78
2022/09/22 04:42:30;;;;;;;1.98;1.77;;;20.40;60.50;;;;;;4923989;28;95843;-79
2022/09/22 04:45:00;;;;;;;2.10;1.50;;;20.40;60.30;;;;;;4922551;28;92453;-79
2022/09/22 04:47:27;;;;;;;2.75;2.15;;;20.40;60.20;;;;;;4922941;28;91704;-79
2022/09/22 04:49:53;;;;;;;2.45;1.70;;;20.40;60.00;;;;;;4923343;28;93216;-79
2022/09/22 04:52:19;;;;;;;2.05;1.60;;;20.40;60.00;;;;;;4924300;28;92614;-79
2022/09/22 04:54:44;;;;;;;2.08;1.88;;;20.40;60.00;;;;;;4924298;28;92794;-79
2022/09/22 04:57:10;;;;;;;2.53;1.90;;;20.40;60.00;;;;;;4922242;28;92418;-79
2022/09/22 04:59:35;;;;;;;1.83;1.52;;;20.30;60.10;;;;;;4923046;28;92668;-79
2022/09/22 05:02:01;;;;;;;2.25;1.75;;;20.30;60.20;;;;;;4922810;28;92299;-79
2022/09/22 05:04:27;;;;;;;2.13;1.67;;;20.30;60.10;;;;;;4954993;28;92619;-79
2022/09/22 05:06:54;;;;;;;1.90;1.60;;;20.30;60.10;;;;;;4925180;28;92142;-79
2022/09/22 05:09:20;;;;;;;2.10;1.90;;;20.30;59.90;;;;;;4913846;28;93639;-79
2022/09/22 05:11:47;;;;;;;2.58;1.88;;;20.30;60.10;;;;;;4924354;28;92847;-79
2022/09/22 05:14:14;;;;;;;2.67;1.60;;;20.30;60.10;;;;;;4923755;28;92237;-79
2022/09/22 05:16:40;;;;;;;2.20;1.85;;;20.30;59.90;;;;;;4926880;28;92557;-79
2022/09/22 05:19:08;;;;;;;1.80;1.55;;;20.30;60.00;;;;;;4922847;28;94548;-79
2022/09/22 05:21:37;;;;;;;2.40;1.90;;;20.30;60.10;;;;;;4923108;28;92408;-79
2022/09/22 05:24:03;;;;;;;2.45;1.90;;;20.30;60.00;;;;;;4924579;28;92238;-79
2022/09/22 05:26:31;;;;;;;1.98;1.77;;;20.30;60.00;;;;;;4923830;28;92259;-79
2022/09/22 05:28:57;;;;;;;2.05;1.85;;;20.30;60.00;;;;;;4924561;28;93353;-79
2022/09/22 05:31:23;;;;;;;2.28;1.88;;;20.30;59.80;;;;;;4922780;28;93811;-79
2022/09/22 05:33:49;;;;;;;2.63;1.73;;;20.30;59.90;;;;;;4924426;28;92868;-79
2022/09/22 05:36:15;;;;;;;2.50;1.77;;;20.30;59.90;;;;;;4923000;28;92395;-79
2022/09/22 05:38:41;;;;;;;2.17;1.75;;;20.30;59.80;;;;;;4922127;28;92707;-79
2022/09/22 05:41:06;;;;;;;1.40;1.30;;;20.30;59.90;;;;;;4924007;28;92111;-79
2022/09/22 05:43:32;;;;;;;2.22;1.65;;;20.30;59.90;;;;;;4922161;28;93401;-79
2022/09/22 05:45:58;;;;;;;1.90;1.70;;;20.30;59.80;;;;;;4924134;28;92528;-79
2022/09/22 05:48:23;;;;;;;2.85;2.00;;;20.30;59.80;;;;;;4922076;28;93670;-79
2022/09/22 05:50:49;;;;;;;2.22;1.98;;;20.30;59.70;;;;;;4924858;28;93802;-79
2022/09/22 05:53:15;;;;;;;1.90;1.70;;;20.30;59.80;;;;;;4923390;28;92463;-79
2022/09/22 05:55:41;;;;;;;2.53;1.60;;;20.30;59.90;;;;;;4923317;28;92579;-79
2022/09/22 05:58:10;;;;;;;2.08;1.88;;;20.30;59.80;;;;;;4923568;28;93108;-79
2022/09/22 06:00:37;;;;;;;1.50;1.40;;;20.30;59.50;;;;;;4923052;28;92637;-79
2022/09/22 06:03:03;;;;;;;2.63;1.70;;;20.30;59.60;;;;;;4925301;28;92264;-80
2022/09/22 06:05:29;;;;;;;2.08;1.70;;;20.30;59.60;;;;;;4932008;28;92736;-80
2022/09/22 06:08:02;;;;;;;2.10;1.67;;;20.30;59.50;;;;;;4934100;28;95847;-79
2022/09/22 06:10:29;;;;;;;1.83;1.65;;;20.40;59.40;;;;;;4922983;28;92589;-80
2022/09/22 06:12:59;;;;;;;1.98;1.77;;;20.40;59.30;;;;;;4924073;28;92682;-80
2022/09/22 06:15:26;;;;;;;1.85;1.52;;;20.40;59.20;;;;;;4919461;28;92350;-80
2022/09/22 06:17:52;;;;;;;2.08;1.70;;;20.40;59.30;;;;;;4920083;28;94108;-80
2022/09/22 06:20:17;;;;;;;2.05;1.85;;;20.30;59.50;;;;;;4922360;28;93361;-79
2022/09/22 06:22:43;;;;;;;1.50;1.33;;;20.30;59.70;;;;;;4920975;28;92097;-79
2022/09/22 06:25:09;;;;;;;3.75;1.70;;;20.30;59.70;;;;;;4956202;28;91651;-80
2022/09/22 06:27:35;;;;;;;2.00;1.58;;;20.30;59.70;;;;;;4956854;28;92455;-79
2022/09/22 06:30:01;;;;;;;1.88;1.50;;;20.30;59.70;;;;;;4956906;28;94272;-79
2022/09/22 06:32:26;;;;;;;2.55;1.83;;;20.30;59.60;;;;;;4956402;28;93092;-80
2022/09/22 06:34:52;;;;;;;3.03;1.50;;;20.40;59.60;;;;;;4960002;28;92217;-80
2022/09/22 06:37:19;;;;;;;2.35;1.75;;;20.50;59.50;;;;;;4959111;28;93807;-79
2022/09/22 06:39:45;;;;;;;2.47;1.60;;;20.60;59.00;;;;;;4962068;28;93263;-80
2022/09/22 06:42:13;;;;;;;4.72;1.98;;;20.60;58.70;;;;;;4959618;28;92151;-79
2022/09/22 06:44:40;;;;;;;2.22;1.65;;;20.70;58.60;;;;;;4960567;28;92545;-80
2022/09/22 06:47:07;;;;;;;4.97;2.22;;;20.70;58.40;;;;;;4962171;28;94982;-80
2022/09/22 06:49:32;;;;;;;3.08;1.77;;;20.70;58.10;;;;;;4962405;28;92674;-79
2022/09/22 06:51:58;;;;;;;4.50;2.20;;;20.80;58.50;;;;;;4964425;28;92873;-80
2022/09/22 06:54:24;;;;;;;3.58;2.10;;;20.90;58.60;;;;;;4959525;28;92540;-79
2022/09/22 06:56:50;;;;;;;3.92;2.05;;;20.90;59.10;;;;;;4933456;28;94021;-80
2022/09/22 06:59:15;;;;;;;3.25;2.20;;;20.90;59.20;;;;;;4925640;28;93291;-80
2022/09/22 07:01:43;;;;;;;4.03;2.17;;;21.00;59.40;;;;;;4926781;28;92485;-79
2022/09/22 07:04:09;;;;;;;5.00;2.15;;;21.00;59.40;;;;;;4926783;28;92177;-78
2022/09/22 07:06:36;;;;;;;5.18;2.15;;;21.10;59.30;;;;;;4955250;28;96777;-79
2022/09/22 07:09:06;;;;;;;4.53;2.30;;;21.10;59.70;;;;;;4927938;28;94032;-80
2022/09/22 07:11:31;;;;;;;4.05;2.33;;;21.10;59.80;;;;;;4925100;28;92507;-80
2022/09/22 07:13:57;;;;;;;9.75;2.78;;;21.20;60.00;;;;;;4924537;28;91682;-79
2022/09/22 07:16:24;;;;;;;7.43;2.17;;;21.20;59.80;;;;;;4926250;28;93574;-80
2022/09/22 07:18:55;;;;;;;6.15;2.13;;;21.20;59.90;;;;;;4925459;28;93368;-79
2022/09/22 07:21:26;;;;;;;8.25;2.15;;;21.20;60.00;;;;;;4925871;28;93376;-80
2022/09/22 07:23:55;;;;;;;5.53;1.85;;;21.20;60.90;;;;;;4925500;28;93238;-80
2022/09/22 07:26:27;;;;;;;3.65;1.90;;;21.30;60.00;;;;;;4925644;28;92218;-80
2022/09/22 07:28:55;;;;;;;9.98;2.20;;;21.20;60.30;;;;;;4955685;28;96130;-80
2022/09/22 07:31:22;;;;;;;4.75;2.33;;;21.30;60.10;;;;;;4924597;28;92663;-81
2022/09/22 07:33:48;;;;;;;2.95;2.00;;;21.40;59.70;;;;;;4924526;28;91949;-81
2022/09/22 07:36:17;;;;;;;5.25;2.30;;;21.40;59.70;;;;;;4937831;28;92712;-81
2022/09/22 07:38:47;;;;;;;8.27;2.45;;;21.40;59.50;;;;;;4924658;28;93479;-80
2022/09/22 07:41:17;;;;;;;5.40;1.95;;;21.50;59.50;;;;;;4923400;28;92051;-80
2022/09/22 07:43:43;;;;;;;7.45;2.13;;;21.50;59.50;;;;;;4922539;28;92495;-81
2022/09/22 07:46:11;;;;;;;3.92;2.22;;;21.50;58.80;;;;;;4921612;28;94195;-80
2022/09/22 07:48:36;;;;;;;6.65;2.55;;;21.50;58.40;;;;;;4921764;28;92286;-81
2022/09/22 07:51:04;;;;;;;13.13;3.53;;;21.50;59.00;;;;;;4928568;28;92530;-81
2022/09/22 07:53:31;;;;;;;16.23;4.13;;;21.50;58.80;;;;;;4929382;28;92799;-81
2022/09/22 07:56:11;;;;;;;21.75;4.07;;;21.50;58.70;;;;;;4921053;28;92498;-80
2022/09/22 07:58:48;;;;;;;18.48;4.80;;;21.50;58.90;;;;;;4923849;28;93331;-80
2022/09/22 08:01:15;;;;;;;16.73;4.90;;;21.50;58.80;;;;;;4923235;28;92185;-80
2022/09/22 08:03:40;;;;;;;23.60;6.38;;;21.50;58.80;;;;;;4922518;28;91479;-80
2022/09/22 08:06:11;;;;;;;19.50;5.68;;;21.40;58.70;;;;;;4920969;28;93667;-80
2022/09/22 08:08:45;;;;;;;21.80;5.82;;;21.50;58.80;;;;;;4921669;28;92184;-80
2022/09/22 08:11:14;;;;;;;18.10;5.03;;;21.50;58.90;;;;;;4940895;28;93524;-80
2022/09/22 08:13:54;;;;;;;21.23;6.07;;;21.40;58.90;;;;;;4921731;28;92814;-80
2022/09/22 08:16:22;;;;;;;22.95;5.63;;;21.40;59.00;;;;;;4924066;28;95031;-81
2022/09/22 08:18:58;;;;;;;17.55;5.55;;;21.40;59.00;;;;;;4925728;28;92382;-80
2022/09/22 08:21:31;;;;;;;18.10;5.57;;;21.50;58.80;;;;;;4925177;28;92243;-80
2022/09/22 08:23:58;;;;;;;20.67;5.88;;;21.50;58.60;;;;;;4926743;28;92537;-80
2022/09/22 08:26:23;;;;;;;21.48;5.88;;;21.50;58.50;;;;;;4924509;28;92304;-80
2022/09/22 08:28:54;;;;;;;17.38;5.30;;;21.50;58.40;;;;;;4921193;28;93854;-80
2022/09/22 08:31:20;;;;;;;15.20;4.85;;;21.40;58.20;;;;;;4921356;28;92639;-80
2022/09/22 08:33:48;;;;;;;19.67;5.32;;;21.50;55.10;;;;;;4920404;28;93370;-80
2022/09/22 08:36:14;;;;;;;9.20;3.85;;;21.50;55.40;;;;;;4920188;28;94755;-80
2022/09/22 08:38:41;;;;;;;11.77;4.03;;;21.40;52.50;;;;;;4922027;28;92180;-79
2022/09/22 08:41:17;;;;;;;17.77;4.40;;;21.40;52.20;;;;;;4923390;28;92352;-80
2022/09/22 08:43:54;;;;;;;13.73;4.60;;;21.40;54.50;;;;;;4921029;28;92607;-80
2022/09/22 08:46:24;;;;;;;12.90;4.10;;;21.40;55.10;;;;;;4921456;28;93130;-81
2022/09/22 08:51:52;;;;;;;9.57;3.83;;;21.40;54.90;;;;;;4922747;28;92582;-79
2022/09/22 08:54:37;;;;;;;10.18;3.28;;;21.30;52.40;;;;;;4921006;28;91280;-79
2022/09/22 08:57:33;;;;;;;10.43;2.90;;;21.30;50.80;;;;;;4915085;28;92812;-80
2022/09/22 09:00:11;;;;;;;11.60;3.17;;;21.20;51.90;;;;;;4920871;28;93216;-80
2022/09/22 09:02:43;;;;;;;9.15;2.88;;;21.20;52.00;;;;;;4921134;28;93343;-80
2022/09/22 09:05:29;;;;;;;9.35;2.95;;;21.20;51.90;;;;;;4916844;28;92193;-80
2022/09/22 09:08:13;;;;;;;9.40;3.08;;;21.10;51.90;;;;;;4918743;28;92719;-81
2022/09/22 09:10:46;;;;;;;7.10;2.60;;;21.10;51.90;;;;;;4916964;28;92778;-81
2022/09/22 09:13:36;;;;;;;4.97;2.35;;;21.10;51.90;;;;;;4919874;28;92454;-81
2022/09/22 09:16:13;;;;;;;10.32;2.88;;;21.10;52.00;;;;;;4920219;28;92559;-81
2022/09/22 09:18:49;;;;;;;7.40;2.45;;;21.10;52.00;;;;;;4918205;28;92658;-81
2022/09/22 09:21:15;;;;;;;9.70;2.78;;;21.10;52.00;;;;;;4921550;28;93251;-81
2022/09/22 09:23:46;;;;;;;6.05;2.55;;;21.10;51.90;;;;;;4923481;28;92121;-81
2022/09/22 09:26:14;;;;;;;7.00;2.22;;;21.10;52.10;;;;;;4917419;28;92587;-79
2022/09/22 09:28:57;;;;;;;11.80;2.97;;;21.10;52.40;;;;;;4920922;28;93821;-79
2022/09/22 09:31:27;;;;;;;6.90;2.40;;;21.10;51.90;;;;;;4920112;28;95980;-79
2022/09/22 09:33:56;;;;;;;11.93;2.83;;;21.10;52.40;;;;;;4950534;28;92031;-79
2022/09/22 09:36:28;;;;;;;6.00;2.53;;;21.10;52.10;;;;;;4915063;28;92101;-81
2022/09/22 09:38:55;;;;;;;7.88;2.67;;;21.10;52.20;;;;;;4922381;28;93529;-81
2022/09/22 09:41:31;;;;;;;10.73;3.45;;;21.10;52.50;;;;;;4924630;28;92903;-81
2022/09/22 09:44:01;;;;;;;7.75;2.75;;;21.10;52.60;;;;;;4956252;28;92535;-81
2022/09/22 09:46:41;;;;;;;7.60;2.40;;;21.10;53.00;;;;;;4924718;28;91336;-81
2022/09/22 09:49:22;;;;;;;8.73;2.75;;;21.10;52.90;;;;;;4925931;28;94321;-80
2022/09/22 09:51:52;;;;;;;8.07;2.33;;;21.10;53.10;;;;;;4955942;28;101055;-82
2022/09/22 09:54:18;;;;;;;13.18;3.28;;;21.10;53.30;;;;;;4924850;28;93000;-79
2022/09/22 09:57:20;;;;;;;10.23;2.70;;;21.10;52.90;;;;;;4923776;28;92489;-79
2022/09/22 10:02:46;;;;;;;9.38;2.78;;;21.10;53.20;;;;;;4930519;28;92462;-79
2022/09/22 10:05:15;;;;;;;11.20;2.83;;;21.10;53.20;;;;;;4931473;28;92364;-79
2022/09/22 10:07:46;;;;;;;7.53;2.63;;;21.10;53.50;;;;;;4929776;28;92525;-80
2022/09/22 10:10:41;;;;;;;7.63;2.85;;;21.10;53.60;;;;;;4932440;28;93545;-80
2022/09/22 10:13:06;;;;;;;6.80;2.30;;;21.10;53.70;;;;;;4871815;28;96418;-80
2022/09/22 10:15:37;;;;;;;4.18;2.45;;;21.10;54.20;;;;;;4874049;28;92216;-79
2022/09/22 10:18:23;;;;;;;6.32;2.33;;;21.10;54.00;;;;;;4872796;28;92131;-80
2022/09/22 10:21:14;;;;;;;8.23;2.40;;;21.10;54.10;;;;;;4842196;28;94427;-79
2022/09/22 10:23:44;;;;;;;4.70;1.95;;;21.10;54.20;;;;;;4870662;28;94180;-79
2022/09/22 10:26:14;;;;;;;4.75;1.77;;;21.10;54.30;;;;;;4870799;28;92479;-79
2022/09/22 10:28:40;;;;;;;12.15;2.13;;;21.10;54.50;;;;;;4870433;28;93155;-82
2022/09/22 10:31:05;;;;;;;6.82;2.25;;;21.10;54.30;;;;;;4867937;28;93220;-82
2022/09/22 10:33:32;;;;;;;7.07;2.35;;;21.20;54.00;;;;;;4864029;28;93527;-83
2022/09/22 10:36:06;;;;;;;7.20;1.95;;;21.10;54.00;;;;;;4872431;28;92653;-83
2022/09/22 10:38:43;;;;;;;3.70;1.80;;;21.10;54.10;;;;;;4878933;28;92090;-83
2022/09/22 10:41:12;;;;;;;6.30;2.25;;;21.20;54.00;;;;;;4878798;28;93409;-80
2022/09/22 10:43:59;;;;;;;12.70;2.70;;;21.20;54.30;;;;;;4879651;28;93044;-80
2022/09/22 10:46:43;;;;;;;6.80;2.40;;;21.20;54.50;;;;;;4880884;28;93495;-80
2022/09/22 10:49:31;;;;;;;6.38;2.55;;;21.20;54.40;;;;;;4894954;28;92227;-83
2022/09/22 10:52:22;;;;;;;6.47;2.28;;;21.30;66.60;;;;;;4924874;28;98792;-83
2022/09/22 10:55:02;;;;;;;6.80;2.30;;;21.20;55.80;;;;;;4926529;28;97010;-83
2022/09/22 10:57:59;;;;;;;10.75;2.58;;;21.20;55.30;;;;;;4956569;28;92527;-83
2022/09/22 11:00:26;;;;;;;12.00;2.67;;;21.30;54.90;;;;;;4956063;28;92460;-85
2022/09/22 11:03:31;;;;;;;7.07;2.88;;;21.30;55.10;;;;;;4926642;28;92466;-84
2022/09/22 11:12:22;;;;;;;12.23;3.90;;;21.30;54.20;;;;;;4926828;28;91876;-85
2022/09/22 11:15:06;;;;;;;11.93;3.17;;;21.40;54.50;;;;;;4925392;28;93033;-84
2022/09/22 11:18:10;;;;;;;6.90;3.03;;;21.40;54.20;;;;;;4916638;28;94947;-84
2022/09/22 11:20:40;;;;;;;10.75;3.30;;;21.40;54.20;;;;;;4935614;28;92444;-84
2022/09/22 11:23:32;;;;;;;8.95;4.05;;;21.40;54.10;;;;;;4935967;28;92281;-83
2022/09/22 11:26:16;;;;;;;8.65;2.50;;;21.50;53.70;;;;;;4936349;28;93078;-82
2022/09/22 11:29:08;;;;;;;9.77;2.55;;;21.50;52.70;;;;;;4936885;28;93204;-83
2022/09/22 11:32:01;;;;;;;10.13;2.75;;;21.50;49.50;;;;;;4936904;28;92219;-83
2022/09/22 11:34:42;;;;;;;8.57;2.35;;;21.50;51.30;;;;;;4937253;28;91883;-84
2022/09/22 11:37:29;;;;;;;3.22;2.30;;;21.60;50.60;;;;;;4943196;28;95219;-83
2022/09/22 11:40:04;;;;;;;8.57;2.67;;;21.60;50.50;;;;;;4936079;28;97623;-83
2022/09/22 11:42:39;;;;;;;6.65;2.55;;;21.60;51.30;;;;;;4936474;28;93295;-83
2022/09/22 11:45:17;;;;;;;7.70;2.50;;;21.60;54.30;;;;;;4936344;28;92545;-83
2022/09/22 11:48:23;;;;;;;5.78;2.50;;;21.70;56.90;;;;;;4934726;28;92279;-83
2022/09/22 11:51:04;;;;;;;5.03;2.58;;;21.70;55.80;;;;;;4935440;28;93269;-83
2022/09/22 11:53:52;;;;;;;7.15;2.03;;;21.60;53.60;;;;;;4936850;28;92427;-83
2022/09/22 11:56:27;;;;;;;5.78;2.17;;;21.50;53.30;;;;;;4936876;28;92665;-83
2022/09/22 11:58:56;;;;;;;9.27;2.53;;;21.50;52.90;;;;;;4929459;28;93617;-84
2022/09/22 12:01:28;;;;;;;6.03;2.00;;;21.40;52.40;;;;;;4930673;28;92361;-82
2022/09/22 12:04:12;;;;;;;5.80;2.28;;;21.50;52.90;;;;;;4928785;28;92053;-83
2022/09/22 12:06:43;;;;;;;4.93;2.20;;;21.50;52.90;;;;;;4929646;28;92029;-83
2022/09/22 12:09:34;;;;;;;4.43;1.90;;;21.50;53.40;;;;;;4928680;28;94558;-83
2022/09/22 12:12:03;;;;;;;4.63;1.98;;;21.50;51.90;;;;;;4958198;28;96030;-83
2022/09/22 12:14:29;;;;;;;6.30;2.10;;;21.50;50.80;;;;;;4927403;28;92398;-83
2022/09/22 12:17:14;;;;;;;5.00;1.90;;;21.40;50.40;;;;;;4928970;28;92029;-83
2022/09/22 12:19:49;;;;;;;4.07;1.73;;;21.40;50.40;;;;;;4927874;28;93083;-83
2022/09/22 12:22:47;;;;;;;3.88;1.98;;;21.40;49.40;;;;;;4926862;28;92527;-83
2022/09/22 12:25:14;;;;;;;8.25;2.08;;;21.40;49.10;;;;;;4935853;28;92409;-82
2022/09/22 12:27:40;;;;;;;7.07;2.05;;;21.40;49.70;;;;;;4935391;28;91714;-83
2022/09/22 12:30:18;;;;;;;3.53;1.60;;;21.40;50.00;;;;;;4935173;28;93035;-83
2022/09/22 12:32:47;;;;;;;3.53;1.40;;;21.40;47.90;;;;;;4933711;28;94835;-82
2022/09/22 12:35:28;;;;;;;;;;;21.40;48.50;;;;;;4935445;28;93371;-83
2022/09/22 12:37:54;;;;;;;3.75;1.77;;;21.40;46.50;;;;;;4936239;28;92838;-83
2022/09/22 12:40:30;;;;;;;2.65;1.70;;;21.50;48.40;;;;;;4935159;28;94997;-83
2022/09/22 12:42:58;;;;;;;2.95;1.35;;;21.40;47.50;;;;;;4935195;28;92645;-83
2022/09/22 12:45:35;;;;;;;4.30;1.20;;;21.40;47.00;;;;;;4935702;28;92157;-83
2022/09/22 12:48:15;;;;;;;5.57;1.60;;;21.40;47.50;;;;;;4934151;28;92357;-81
2022/09/22 12:50:41;;;;;;;;;;;21.40;46.10;;;;;;4935004;28;93791;-84
2022/09/22 12:53:22;;;;;;;4.38;1.58;;;21.50;46.60;;;;;;4935913;28;91473;-81
2022/09/22 12:55:57;;;;;;;2.78;1.30;;;21.40;47.30;;;;;;4933200;28;92067;-81
2022/09/22 12:58:22;;;;;;;2.35;1.17;;;21.40;47.60;;;;;;4934347;28;92421;-82
2022/09/22 13:00:50;;;;;;;2.78;1.23;;;21.40;47.60;;;;;;4951862;28;98436;-81
2022/09/22 13:03:25;;;;;;;4.78;1.38;;;21.40;47.90;;;;;;4955966;28;95595;-81
2022/09/22 13:06:20;;;;;;;2.05;1.17;;;21.30;48.20;;;;;;4956564;28;92511;-81
2022/09/22 13:08:52;;;;;;;5.45;1.63;;;21.40;48.40;;;;;;4923890;28;92417;-84
2022/09/22 13:11:17;;;;;;;6.78;1.20;;;21.50;47.90;;;;;;4923793;28;92723;-84
2022/09/22 13:13:49;;;;;;;2.67;1.35;;;21.60;48.40;;;;;;4922556;28;92703;-84
2022/09/22 13:16:14;;;;;;;4.38;1.48;;;21.60;48.40;;;;;;4923646;28;92448;-84
2022/09/22 13:18:44;;;;;;;4.22;1.30;;;21.60;48.40;;;;;;4923580;28;91910;-85
2022/09/22 13:21:12;;;;;;;4.43;1.58;;;21.70;48.60;;;;;;4923279;28;93228;-84